sensor_id;sensor_type;location;lat;lon;timestamp;temperature;humidity
44775;DHT22;31340;51.402;0.016;2022-11-11T00:02:38;16.10;99.90
44775;DHT22;31340;51.402;0.016;2022-11-11T00:05:25;16.00;99.90
44775;DHT22;31340;51.402;0.016;2022-11-11T00:08:11;16.10;99.90
44775;DHT22;31340;51.402;0.016;2022-11-11T00:11:02;16.00;99.90
44775;DHT22;31340;51.402;0.016;2022-11-11T00:13:48;16.10;99.90
44775;DHT22;31340;51.402;0.016;2022-11-11T00:16:34;16.00;99.90
44775;DHT22;31340;51.402;0.016;2022-11-11T00:19:39;16.00;99.90
44775;DHT22;31340;51.402;0.016;2022-11-11T00:22:44;16.10;99.90
44775;DHT22;31340;51.402;0.016;2022-11-11T00:25:52;16.00;99.90
44775;DHT22;31340;51.402;0.016;2022-11-11T00:28:59;16.00;99.90
44775;DHT22;31340;51.402;0.016;2022-11-11T00:31:45;16.10;99.90
44775;DHT22;31340;51.402;0.016;2022-11-11T00:34:52;16.10;99.90
44775;DHT22;31340;51.402;0.016;2022-11-11T00:38:09;16.10;99.90
44775;DHT22;31340;51.402;0.016;2022-11-11T00:40:55;16.10;99.90
44775;DHT22;31340;51.402;0.016;2022-11-11T00:43:42;16.00;99.90
44775;DHT22;31340;51.402;0.016;2022-11-11T00:46:31;16.10;99.90
44775;DHT22;31340;51.402;0.016;2022-11-11T00:49:36;16.10;99.90
44775;DHT22;31340;51.402;0.016;2022-11-11T00:52:44;16.00;99.90
44775;DHT22;31340;51.402;0.016;2022-11-11T00:55:31;16.10;99.90
44775;DHT22;31340;51.402;0.016;2022-11-11T00:58:17;16.10;99.90
44775;DHT22;31340;51.402;0.016;2022-11-11T01:01:03;16.10;99.90
44775;DHT22;31340;51.402;0.016;2022-11-11T01:03:49;16.10;99.90
44775;DHT22;31340;51.402;0.016;2022-11-11T01:06:35;16.10;99.90
44775;DHT22;31340;51.402;0.016;2022-11-11T01:09:22;16.10;99.90
44775;DHT22;31340;51.402;0.016;2022-11-11T01:12:08;16.10;99.90
44775;DHT22;31340;51.402;0.016;2022-11-11T01:14:55;16.10;99.90
44775;DHT22;31340;51.402;0.016;2022-11-11T01:17:41;16.20;99.90
44775;DHT22;31340;51.402;0.016;2022-11-11T01:20:27;16.20;99.90
44775;DHT22;31340;51.402;0.016;2022-11-11T01:23:14;16.10;99.90
44775;DHT22;31340;51.402;0.016;2022-11-11T01:26:20;16.20;99.90
44775;DHT22;31340;51.402;0.016;2022-11-11T01:29:14;16.20;99.90
44775;DHT22;31340;51.402;0.016;2022-11-11T01:32:00;16.20;99.90
44775;DHT22;31340;51.402;0.016;2022-11-11T01:34:46;16.20;99.90
44775;DHT22;31340;51.402;0.016;2022-11-11T01:37:33;16.20;99.90
44775;DHT22;31340;51.402;0.016;2022-11-11T01:40:20;16.20;99.90
44775;DHT22;31340;51.402;0.016;2022-11-11T01:45:58;16.20;99.90
44775;DHT22;31340;51.402;0.016;2022-11-11T01:48:52;16.20;99.90
44775;DHT22;31340;51.402;0.016;2022-11-11T01:52:18;16.20;99.90
44775;DHT22;31340;51.402;0.016;2022-11-11T01:55:12;16.20;99.90
44775;DHT22;31340;51.402;0.016;2022-11-11T01:58:06;16.30;99.90
44775;DHT22;31340;51.402;0.016;2022-11-11T02:00:56;16.30;99.90
44775;DHT22;31340;51.402;0.016;2022-11-11T02:03:43;16.20;99.90
44775;DHT22;31340;51.402;0.016;2022-11-11T02:06:54;16.30;99.90
44775;DHT22;31340;51.402;0.016;2022-11-11T02:09:44;16.20;99.90
44775;DHT22;31340;51.402;0.016;2022-11-11T02:12:32;16.20;99.90
44775;DHT22;31340;51.402;0.016;2022-11-11T02:15:37;16.20;99.90
44775;DHT22;31340;51.402;0.016;2022-11-11T02:18:24;16.20;99.90
44775;DHT22;31340;51.402;0.016;2022-11-11T02:21:14;16.20;99.90
44775;DHT22;31340;51.402;0.016;2022-11-11T02:24:08;16.20;99.90
44775;DHT22;31340;51.402;0.016;2022-11-11T02:26:57;16.20;99.90
44775;DHT22;31340;51.402;0.016;2022-11-11T02:29:46;16.20;99.90
44775;DHT22;31340;51.402;0.016;2022-11-11T02:32:33;16.20;99.90
44775;DHT22;31340;51.402;0.016;2022-11-11T02:35:34;16.20;99.90
44775;DHT22;31340;51.402;0.016;2022-11-11T02:38:21;16.20;99.90
44775;DHT22;31340;51.402;0.016;2022-11-11T02:41:08;16.20;99.90
44775;DHT22;31340;51.402;0.016;2022-11-11T02:44:13;16.20;99.90
44775;DHT22;31340;51.402;0.016;2022-11-11T02:46:59;16.20;99.90
44775;DHT22;31340;51.402;0.016;2022-11-11T02:49:46;16.20;99.90
44775;DHT22;31340;51.402;0.016;2022-11-11T02:52:32;16.20;99.90
44775;DHT22;31340;51.402;0.016;2022-11-11T02:55:18;16.20;99.90
44775;DHT22;31340;51.402;0.016;2022-11-11T02:58:05;16.20;99.90
44775;DHT22;31340;51.402;0.016;2022-11-11T03:00:51;16.20;99.90
44775;DHT22;31340;51.402;0.016;2022-11-11T03:03:37;16.20;99.90
44775;DHT22;31340;51.402;0.016;2022-11-11T03:06:23;16.20;99.90
44775;DHT22;31340;51.402;0.016;2022-11-11T03:09:10;16.20;99.90
44775;DHT22;31340;51.402;0.016;2022-11-11T03:11:56;16.20;99.90
44775;DHT22;31340;51.402;0.016;2022-11-11T03:14:42;16.10;99.90
44775;DHT22;31340;51.402;0.016;2022-11-11T03:17:29;16.10;99.90
44775;DHT22;31340;51.402;0.016;2022-11-11T03:20:24;16.10;99.90
44775;DHT22;31340;51.402;0.016;2022-11-11T03:23:30;16.10;99.90
44775;DHT22;31340;51.402;0.016;2022-11-11T03:26:16;16.10;99.90
44775;DHT22;31340;51.402;0.016;2022-11-11T03:29:02;16.10;99.90
44775;DHT22;31340;51.402;0.016;2022-11-11T03:31:48;16.10;99.90
44775;DHT22;31340;51.402;0.016;2022-11-11T03:34:34;16.10;99.90
44775;DHT22;31340;51.402;0.016;2022-11-11T03:37:20;16.10;99.90
44775;DHT22;31340;51.402;0.016;2022-11-11T03:40:25;16.10;99.90
44775;DHT22;31340;51.402;0.016;2022-11-11T03:43:13;16.10;99.90
44775;DHT22;31340;51.402;0.016;2022-11-11T03:46:00;16.10;99.90
44775;DHT22;31340;51.402;0.016;2022-11-11T03:48:47;16.10;99.90
44775;DHT22;31340;51.402;0.016;2022-11-11T03:51:33;16.10;99.90
44775;DHT22;31340;51.402;0.016;2022-11-11T03:54:19;16.10;99.90
44775;DHT22;31340;51.402;0.016;2022-11-11T03:57:05;16.10;99.90
44775;DHT22;31340;51.402;0.016;2022-11-11T04:00:11;16.10;99.90
44775;DHT22;31340;51.402;0.016;2022-11-11T04:03:09;16.10;99.90
44775;DHT22;31340;51.402;0.016;2022-11-11T04:06:14;16.00;99.90
44775;DHT22;31340;51.402;0.016;2022-11-11T04:09:19;16.00;99.90
44775;DHT22;31340;51.402;0.016;2022-11-11T04:12:24;16.00;99.90
44775;DHT22;31340;51.402;0.016;2022-11-11T04:15:11;16.00;99.90
44775;DHT22;31340;51.402;0.016;2022-11-11T04:18:16;16.00;99.90
44775;DHT22;31340;51.402;0.016;2022-11-11T04:21:02;15.90;99.90
44775;DHT22;31340;51.402;0.016;2022-11-11T04:24:07;15.90;99.90
44775;DHT22;31340;51.402;0.016;2022-11-11T04:27:15;15.90;99.90
44775;DHT22;31340;51.402;0.016;2022-11-11T04:30:02;15.80;99.90
44775;DHT22;31340;51.402;0.016;2022-11-11T04:32:48;15.80;99.90
44775;DHT22;31340;51.402;0.016;2022-11-11T04:35:34;15.80;99.90
44775;DHT22;31340;51.402;0.016;2022-11-11T04:38:20;15.80;99.90
44775;DHT22;31340;51.402;0.016;2022-11-11T04:41:25;15.70;99.90
44775;DHT22;31340;51.402;0.016;2022-11-11T04:44:31;15.70;99.90
44775;DHT22;31340;51.402;0.016;2022-11-11T04:47:36;15.60;99.90
44775;DHT22;31340;51.402;0.016;2022-11-11T04:50:25;15.60;99.90
44775;DHT22;31340;51.402;0.016;2022-11-11T04:53:13;15.60;99.90
44775;DHT22;31340;51.402;0.016;2022-11-11T04:55:59;15.60;99.90
44775;DHT22;31340;51.402;0.016;2022-11-11T04:59:04;15.60;99.90
44775;DHT22;31340;51.402;0.016;2022-11-11T05:02:02;15.50;99.90
44775;DHT22;31340;51.402;0.016;2022-11-11T05:05:07;15.50;99.90
44775;DHT22;31340;51.402;0.016;2022-11-11T05:07:54;15.50;99.90
44775;DHT22;31340;51.402;0.016;2022-11-11T05:10:59;15.50;99.90
44775;DHT22;31340;51.402;0.016;2022-11-11T05:13:45;15.40;99.90
44775;DHT22;31340;51.402;0.016;2022-11-11T05:16:52;15.40;99.90
44775;DHT22;31340;51.402;0.016;2022-11-11T05:19:58;15.40;99.90
44775;DHT22;31340;51.402;0.016;2022-11-11T05:23:02;15.40;99.90
44775;DHT22;31340;51.402;0.016;2022-11-11T05:25:48;15.40;99.90
44775;DHT22;31340;51.402;0.016;2022-11-11T05:28:34;15.40;99.90
44775;DHT22;31340;51.402;0.016;2022-11-11T05:31:20;15.40;99.90
44775;DHT22;31340;51.402;0.016;2022-11-11T05:34:06;15.40;99.90
44775;DHT22;31340;51.402;0.016;2022-11-11T05:36:53;15.40;99.90
44775;DHT22;31340;51.402;0.016;2022-11-11T05:39:39;15.30;99.90
44775;DHT22;31340;51.402;0.016;2022-11-11T05:42:26;15.30;99.90
44775;DHT22;31340;51.402;0.016;2022-11-11T05:45:12;15.30;99.90
44775;DHT22;31340;51.402;0.016;2022-11-11T05:48:02;15.30;99.90
44775;DHT22;31340;51.402;0.016;2022-11-11T05:50:49;15.30;99.90
44775;DHT22;31340;51.402;0.016;2022-11-11T05:53:35;15.30;99.90
44775;DHT22;31340;51.402;0.016;2022-11-11T05:56:22;15.30;99.90
44775;DHT22;31340;51.402;0.016;2022-11-11T05:59:08;15.30;99.90
44775;DHT22;31340;51.402;0.016;2022-11-11T06:01:54;15.30;99.90
44775;DHT22;31340;51.402;0.016;2022-11-11T06:04:41;15.20;99.90
44775;DHT22;31340;51.402;0.016;2022-11-11T06:07:26;15.20;99.90
44775;DHT22;31340;51.402;0.016;2022-11-11T06:10:13;15.30;99.90
44775;DHT22;31340;51.402;0.016;2022-11-11T06:13:17;15.20;99.90
44775;DHT22;31340;51.402;0.016;2022-11-11T06:16:04;15.20;99.90
44775;DHT22;31340;51.402;0.016;2022-11-11T06:18:51;15.20;99.90
44775;DHT22;31340;51.402;0.016;2022-11-11T06:21:37;15.20;99.90
44775;DHT22;31340;51.402;0.016;2022-11-11T06:24:41;15.10;99.90
44775;DHT22;31340;51.402;0.016;2022-11-11T06:27:27;15.20;99.90
44775;DHT22;31340;51.402;0.016;2022-11-11T06:30:14;15.20;99.90
44775;DHT22;31340;51.402;0.016;2022-11-11T06:33:19;15.20;99.90
44775;DHT22;31340;51.402;0.016;2022-11-11T06:36:09;15.10;99.90
44775;DHT22;31340;51.402;0.016;2022-11-11T06:38:55;15.10;99.90
44775;DHT22;31340;51.402;0.016;2022-11-11T06:41:41;15.10;99.90
44775;DHT22;31340;51.402;0.016;2022-11-11T06:44:28;15.10;99.90
44775;DHT22;31340;51.402;0.016;2022-11-11T06:47:14;15.10;99.90
44775;DHT22;31340;51.402;0.016;2022-11-11T06:50:00;15.10;99.90
44775;DHT22;31340;51.402;0.016;2022-11-11T06:52:47;15.20;99.90
44775;DHT22;31340;51.402;0.016;2022-11-11T06:55:33;15.20;99.90
44775;DHT22;31340;51.402;0.016;2022-11-11T06:58:20;15.20;99.90
44775;DHT22;31340;51.402;0.016;2022-11-11T07:01:07;15.20;99.90
44775;DHT22;31340;51.402;0.016;2022-11-11T07:03:54;15.30;99.90
44775;DHT22;31340;51.402;0.016;2022-11-11T07:06:41;15.30;99.90
44775;DHT22;31340;51.402;0.016;2022-11-11T07:09:27;15.30;99.90
44775;DHT22;31340;51.402;0.016;2022-11-11T07:12:13;15.30;99.90
44775;DHT22;31340;51.402;0.016;2022-11-11T07:15:00;15.30;99.90
44775;DHT22;31340;51.402;0.016;2022-11-11T07:17:46;15.30;99.90
44775;DHT22;31340;51.402;0.016;2022-11-11T07:20:32;15.40;99.90
44775;DHT22;31340;51.402;0.016;2022-11-11T07:23:17;15.40;99.90
44775;DHT22;31340;51.402;0.016;2022-11-11T07:26:03;15.40;99.90
44775;DHT22;31340;51.402;0.016;2022-11-11T07:28:49;15.40;99.90
44775;DHT22;31340;51.402;0.016;2022-11-11T07:31:35;15.40;99.90
44775;DHT22;31340;51.402;0.016;2022-11-11T07:34:21;15.50;99.90
44775;DHT22;31340;51.402;0.016;2022-11-11T07:37:08;15.50;99.90
44775;DHT22;31340;51.402;0.016;2022-11-11T07:39:54;15.50;99.90
44775;DHT22;31340;51.402;0.016;2022-11-11T07:42:41;15.50;99.90
44775;DHT22;31340;51.402;0.016;2022-11-11T07:45:27;15.50;99.90
44775;DHT22;31340;51.402;0.016;2022-11-11T07:48:13;15.50;99.90
44775;DHT22;31340;51.402;0.016;2022-11-11T07:50:59;15.60;99.90
44775;DHT22;31340;51.402;0.016;2022-11-11T07:53:45;15.60;99.90
44775;DHT22;31340;51.402;0.016;2022-11-11T07:56:31;15.60;99.90
44775;DHT22;31340;51.402;0.016;2022-11-11T07:59:17;15.60;99.90
44775;DHT22;31340;51.402;0.016;2022-11-11T08:02:03;15.60;99.90
44775;DHT22;31340;51.402;0.016;2022-11-11T08:04:49;15.60;99.90
44775;DHT22;31340;51.402;0.016;2022-11-11T08:07:40;15.70;99.90
44775;DHT22;31340;51.402;0.016;2022-11-11T08:10:28;15.60;99.90
44775;DHT22;31340;51.402;0.016;2022-11-11T08:13:13;15.70;99.90
44775;DHT22;31340;51.402;0.016;2022-11-11T08:16:22;15.70;99.90
44775;DHT22;31340;51.402;0.016;2022-11-11T08:19:09;15.70;99.90
44775;DHT22;31340;51.402;0.016;2022-11-11T08:21:55;15.70;99.90
44775;DHT22;31340;51.402;0.016;2022-11-11T08:24:41;15.80;99.90
44775;DHT22;31340;51.402;0.016;2022-11-11T08:27:47;15.80;99.90
44775;DHT22;31340;51.402;0.016;2022-11-11T08:30:33;15.80;99.90
44775;DHT22;31340;51.402;0.016;2022-11-11T08:33:20;15.80;99.90
44775;DHT22;31340;51.402;0.016;2022-11-11T08:36:22;15.80;99.90
44775;DHT22;31340;51.402;0.016;2022-11-11T08:39:10;15.80;99.90
44775;DHT22;31340;51.402;0.016;2022-11-11T08:41:56;15.80;99.90
44775;DHT22;31340;51.402;0.016;2022-11-11T08:44:43;15.90;99.90
44775;DHT22;31340;51.402;0.016;2022-11-11T08:47:29;15.90;99.90
44775;DHT22;31340;51.402;0.016;2022-11-11T08:50:16;15.90;99.90
44775;DHT22;31340;51.402;0.016;2022-11-11T08:53:05;15.90;99.90
44775;DHT22;31340;51.402;0.016;2022-11-11T08:55:51;15.90;99.90
44775;DHT22;31340;51.402;0.016;2022-11-11T08:58:37;15.90;99.90
44775;DHT22;31340;51.402;0.016;2022-11-11T09:01:23;16.00;99.90
44775;DHT22;31340;51.402;0.016;2022-11-11T09:04:10;16.00;99.90
44775;DHT22;31340;51.402;0.016;2022-11-11T09:07:16;16.00;99.90
44775;DHT22;31340;51.402;0.016;2022-11-11T09:10:03;16.00;99.90
44775;DHT22;31340;51.402;0.016;2022-11-11T09:12:57;16.10;99.90
44775;DHT22;31340;51.402;0.016;2022-11-11T09:15:43;16.10;99.90
44775;DHT22;31340;51.402;0.016;2022-11-11T09:18:29;16.10;99.90
44775;DHT22;31340;51.402;0.016;2022-11-11T09:21:16;16.10;99.90
44775;DHT22;31340;51.402;0.016;2022-11-11T09:24:02;16.10;99.90
44775;DHT22;31340;51.402;0.016;2022-11-11T09:26:48;16.10;99.90
44775;DHT22;31340;51.402;0.016;2022-11-11T09:29:34;16.10;99.90
44775;DHT22;31340;51.402;0.016;2022-11-11T09:32:20;16.10;99.90
44775;DHT22;31340;51.402;0.016;2022-11-11T09:35:06;16.20;99.90
44775;DHT22;31340;51.402;0.016;2022-11-11T09:37:57;16.20;99.90
44775;DHT22;31340;51.402;0.016;2022-11-11T09:40:51;16.20;99.90
44775;DHT22;31340;51.402;0.016;2022-11-11T09:49:45;16.30;99.90
44775;DHT22;31340;51.402;0.016;2022-11-11T09:58:47;16.30;99.90
44775;DHT22;31340;51.402;0.016;2022-11-11T10:01:40;16.40;99.90
44775;DHT22;31340;51.402;0.016;2022-11-11T10:04:36;16.40;99.90
44775;DHT22;31340;51.402;0.016;2022-11-11T10:07:44;16.40;99.90
44775;DHT22;31340;51.402;0.016;2022-11-11T10:10:48;16.50;99.90
44775;DHT22;31340;51.402;0.016;2022-11-11T10:13:36;16.50;99.90
44775;DHT22;31340;51.402;0.016;2022-11-11T10:19:36;16.60;99.90
44775;DHT22;31340;51.402;0.016;2022-11-11T10:22:33;16.60;99.90
44775;DHT22;31340;51.402;0.016;2022-11-11T10:25:24;16.60;99.90
44775;DHT22;31340;51.402;0.016;2022-11-11T10:28:16;16.60;99.90
44775;DHT22;31340;51.402;0.016;2022-11-11T10:31:10;16.60;99.90
44775;DHT22;31340;51.402;0.016;2022-11-11T10:36:53;16.70;99.90
44775;DHT22;31340;51.402;0.016;2022-11-11T10:39:57;16.70;99.90
44775;DHT22;31340;51.402;0.016;2022-11-11T10:42:45;16.70;99.90
44775;DHT22;31340;51.402;0.016;2022-11-11T10:51:50;16.80;99.90
44775;DHT22;31340;51.402;0.016;2022-11-11T10:54:39;16.90;99.90
44775;DHT22;31340;51.402;0.016;2022-11-11T10:57:38;16.90;99.90
44775;DHT22;31340;51.402;0.016;2022-11-11T11:00:26;17.00;99.90
44775;DHT22;31340;51.402;0.016;2022-11-11T11:03:19;17.00;99.90
44775;DHT22;31340;51.402;0.016;2022-11-11T11:12:04;17.30;99.90
44775;DHT22;31340;51.402;0.016;2022-11-11T11:14:55;17.50;99.90
44775;DHT22;31340;51.402;0.016;2022-11-11T11:17:57;17.60;99.90
44775;DHT22;31340;51.402;0.016;2022-11-11T11:20:59;17.80;99.90
44775;DHT22;31340;51.402;0.016;2022-11-11T11:23:46;17.90;99.90
44775;DHT22;31340;51.402;0.016;2022-11-11T11:26:50;18.10;99.90
44775;DHT22;31340;51.402;0.016;2022-11-11T11:29:37;18.20;99.90
44775;DHT22;31340;51.402;0.016;2022-11-11T11:32:28;18.40;99.90
44775;DHT22;31340;51.402;0.016;2022-11-11T11:35:49;18.50;99.40
44775;DHT22;31340;51.402;0.016;2022-11-11T11:38:42;18.50;99.10
44775;DHT22;31340;51.402;0.016;2022-11-11T11:41:39;18.50;98.90
44775;DHT22;31340;51.402;0.016;2022-11-11T11:44:30;18.60;98.70
44775;DHT22;31340;51.402;0.016;2022-11-11T11:47:21;18.50;98.60
44775;DHT22;31340;51.402;0.016;2022-11-11T11:50:33;18.50;98.60
44775;DHT22;31340;51.402;0.016;2022-11-11T11:53:39;18.50;98.50
44775;DHT22;31340;51.402;0.016;2022-11-11T11:56:50;18.50;98.50
44775;DHT22;31340;51.402;0.016;2022-11-11T12:05:49;18.40;98.40
44775;DHT22;31340;51.402;0.016;2022-11-11T12:11:43;18.40;98.30
44775;DHT22;31340;51.402;0.016;2022-11-11T12:21:10;18.50;98.20
44775;DHT22;31340;51.402;0.016;2022-11-11T12:27:38;18.40;98.30
44775;DHT22;31340;51.402;0.016;2022-11-11T12:30:29;18.40;98.20
44775;DHT22;31340;51.402;0.016;2022-11-11T12:37:16;18.40;98.20
44775;DHT22;31340;51.402;0.016;2022-11-11T12:40:18;18.30;98.30
44775;DHT22;31340;51.402;0.016;2022-11-11T12:49:12;18.20;98.20
44775;DHT22;31340;51.402;0.016;2022-11-11T12:58:28;18.00;98.20
44775;DHT22;31340;51.402;0.016;2022-11-11T13:01:44;18.00;98.20
44775;DHT22;31340;51.402;0.016;2022-11-11T13:17:13;18.20;98.20
44775;DHT22;31340;51.402;0.016;2022-11-11T13:20:12;18.40;98.00
44775;DHT22;31340;51.402;0.016;2022-11-11T13:23:01;18.60;97.80
44775;DHT22;31340;51.402;0.016;2022-11-11T13:25:50;18.70;97.80
44775;DHT22;31340;51.402;0.016;2022-11-11T13:28:47;18.80;97.40
44775;DHT22;31340;51.402;0.016;2022-11-11T13:31:39;18.90;97.00
44775;DHT22;31340;51.402;0.016;2022-11-11T13:34:27;19.00;97.00
44775;DHT22;31340;51.402;0.016;2022-11-11T13:37:30;19.00;96.70
44775;DHT22;31340;51.402;0.016;2022-11-11T13:43:21;19.00;96.70
44775;DHT22;31340;51.402;0.016;2022-11-11T13:46:33;19.00;96.60
44775;DHT22;31340;51.402;0.016;2022-11-11T13:49:27;19.00;96.60
44775;DHT22;31340;51.402;0.016;2022-11-11T13:55:35;19.10;96.40
44775;DHT22;31340;51.402;0.016;2022-11-11T13:58:32;19.10;96.20
44775;DHT22;31340;51.402;0.016;2022-11-11T14:01:19;19.10;96.00
44775;DHT22;31340;51.402;0.016;2022-11-11T14:04:06;19.10;96.00
44775;DHT22;31340;51.402;0.016;2022-11-11T14:06:53;19.10;95.90
44775;DHT22;31340;51.402;0.016;2022-11-11T14:09:58;19.00;95.80
44775;DHT22;31340;51.402;0.016;2022-11-11T14:21:09;18.80;95.80
44775;DHT22;31340;51.402;0.016;2022-11-11T14:23:56;18.80;96.00
44775;DHT22;31340;51.402;0.016;2022-11-11T14:26:42;18.70;96.00
44775;DHT22;31340;51.402;0.016;2022-11-11T14:29:36;18.70;96.10
44775;DHT22;31340;51.402;0.016;2022-11-11T14:35:44;18.60;96.00
44775;DHT22;31340;51.402;0.016;2022-11-11T14:38:54;18.60;96.10
44775;DHT22;31340;51.402;0.016;2022-11-11T14:41:49;18.60;96.20
44775;DHT22;31340;51.402;0.016;2022-11-11T14:44:39;18.50;96.30
44775;DHT22;31340;51.402;0.016;2022-11-11T14:47:36;18.50;96.30
44775;DHT22;31340;51.402;0.016;2022-11-11T14:53:19;18.40;96.30
44775;DHT22;31340;51.402;0.016;2022-11-11T14:56:14;18.40;96.40
44775;DHT22;31340;51.402;0.016;2022-11-11T14:59:06;18.30;96.30
44775;DHT22;31340;51.402;0.016;2022-11-11T15:01:53;18.30;96.20
44775;DHT22;31340;51.402;0.016;2022-11-11T15:04:40;18.20;96.30
44775;DHT22;31340;51.402;0.016;2022-11-11T15:07:33;18.10;96.50
44775;DHT22;31340;51.402;0.016;2022-11-11T15:10:37;18.10;96.50
44775;DHT22;31340;51.402;0.016;2022-11-11T15:13:51;18.00;96.60
44775;DHT22;31340;51.402;0.016;2022-11-11T15:26:43;17.70;97.00
44775;DHT22;31340;51.402;0.016;2022-11-11T15:29:56;17.60;97.20
44775;DHT22;31340;51.402;0.016;2022-11-11T15:33:03;17.60;97.20
44775;DHT22;31340;51.402;0.016;2022-11-11T15:38:57;17.40;97.20
44775;DHT22;31340;51.402;0.016;2022-11-11T15:41:47;17.40;97.20
44775;DHT22;31340;51.402;0.016;2022-11-11T15:44:34;17.20;97.20
44775;DHT22;31340;51.402;0.016;2022-11-11T15:47:20;17.20;97.20
44775;DHT22;31340;51.402;0.016;2022-11-11T15:50:28;17.10;97.30
44775;DHT22;31340;51.402;0.016;2022-11-11T15:53:25;17.00;97.50
44775;DHT22;31340;51.402;0.016;2022-11-11T15:56:30;16.90;97.70
44775;DHT22;31340;51.402;0.016;2022-11-11T15:59:21;16.80;97.90
44775;DHT22;31340;51.402;0.016;2022-11-11T16:02:18;16.70;98.10
44775;DHT22;31340;51.402;0.016;2022-11-11T16:05:22;16.70;98.40
44775;DHT22;31340;51.402;0.016;2022-11-11T16:08:14;16.60;98.40
44775;DHT22;31340;51.402;0.016;2022-11-11T16:11:02;16.60;98.50
44775;DHT22;31340;51.402;0.016;2022-11-11T16:14:04;16.50;98.70
44775;DHT22;31340;51.402;0.016;2022-11-11T16:16:55;16.50;98.90
44775;DHT22;31340;51.402;0.016;2022-11-11T16:19:43;16.40;99.00
44775;DHT22;31340;51.402;0.016;2022-11-11T16:22:36;16.40;99.10
44775;DHT22;31340;51.402;0.016;2022-11-11T16:25:23;16.40;99.30
44775;DHT22;31340;51.402;0.016;2022-11-11T16:28:10;16.40;99.30
44775;DHT22;31340;51.402;0.016;2022-11-11T16:30:57;16.40;99.40
44775;DHT22;31340;51.402;0.016;2022-11-11T16:33:43;16.30;99.40
44775;DHT22;31340;51.402;0.016;2022-11-11T16:36:29;16.30;99.40
44775;DHT22;31340;51.402;0.016;2022-11-11T16:39:19;16.30;99.50
44775;DHT22;31340;51.402;0.016;2022-11-11T16:42:16;16.20;99.60
44775;DHT22;31340;51.402;0.016;2022-11-11T16:45:18;16.20;99.70
44775;DHT22;31340;51.402;0.016;2022-11-11T16:48:06;16.20;99.80
44775;DHT22;31340;51.402;0.016;2022-11-11T16:54:27;16.10;99.80
44775;DHT22;31340;51.402;0.016;2022-11-11T16:57:20;16.00;99.90
44775;DHT22;31340;51.402;0.016;2022-11-11T17:00:12;16.00;99.90
44775;DHT22;31340;51.402;0.016;2022-11-11T17:03:17;16.00;99.90
44775;DHT22;31340;51.402;0.016;2022-11-11T17:06:06;15.90;99.90
44775;DHT22;31340;51.402;0.016;2022-11-11T17:08:53;15.90;99.90
44775;DHT22;31340;51.402;0.016;2022-11-11T17:11:41;15.90;99.90
44775;DHT22;31340;51.402;0.016;2022-11-11T17:14:30;15.90;99.90
44775;DHT22;31340;51.402;0.016;2022-11-11T17:17:18;15.90;99.90
44775;DHT22;31340;51.402;0.016;2022-11-11T17:20:14;15.80;99.90
44775;DHT22;31340;51.402;0.016;2022-11-11T17:23:00;15.80;99.90
44775;DHT22;31340;51.402;0.016;2022-11-11T17:25:58;15.80;99.90
44775;DHT22;31340;51.402;0.016;2022-11-11T17:28:47;15.80;99.90
44775;DHT22;31340;51.402;0.016;2022-11-11T17:31:33;15.80;99.90
44775;DHT22;31340;51.402;0.016;2022-11-11T17:34:19;15.80;99.90
44775;DHT22;31340;51.402;0.016;2022-11-11T17:37:06;15.70;99.90
44775;DHT22;31340;51.402;0.016;2022-11-11T17:39:51;15.70;99.90
44775;DHT22;31340;51.402;0.016;2022-11-11T17:42:37;15.60;99.90
44775;DHT22;31340;51.402;0.016;2022-11-11T17:45:23;15.60;99.90
44775;DHT22;31340;51.402;0.016;2022-11-11T17:48:10;15.60;99.90
44775;DHT22;31340;51.402;0.016;2022-11-11T17:50:56;15.50;99.90
44775;DHT22;31340;51.402;0.016;2022-11-11T17:53:42;15.50;99.90
44775;DHT22;31340;51.402;0.016;2022-11-11T17:56:29;15.50;99.90
44775;DHT22;31340;51.402;0.016;2022-11-11T17:59:15;15.40;99.90
44775;DHT22;31340;51.402;0.016;2022-11-11T18:02:04;15.40;99.90
44775;DHT22;31340;51.402;0.016;2022-11-11T18:04:50;15.30;99.90
44775;DHT22;31340;51.402;0.016;2022-11-11T18:07:36;15.30;99.90
44775;DHT22;31340;51.402;0.016;2022-11-11T18:10:29;15.30;99.90
44775;DHT22;31340;51.402;0.016;2022-11-11T18:13:15;15.20;99.90
44775;DHT22;31340;51.402;0.016;2022-11-11T18:16:01;15.20;99.90
44775;DHT22;31340;51.402;0.016;2022-11-11T18:18:52;15.20;99.90
44775;DHT22;31340;51.402;0.016;2022-11-11T18:21:39;15.20;99.90
44775;DHT22;31340;51.402;0.016;2022-11-11T18:24:27;15.20;99.90
44775;DHT22;31340;51.402;0.016;2022-11-11T18:27:13;15.20;99.90
44775;DHT22;31340;51.402;0.016;2022-11-11T18:30:00;15.10;99.90
44775;DHT22;31340;51.402;0.016;2022-11-11T18:32:46;15.10;99.90
44775;DHT22;31340;51.402;0.016;2022-11-11T18:35:32;15.10;99.90
44775;DHT22;31340;51.402;0.016;2022-11-11T18:38:18;15.10;99.90
44775;DHT22;31340;51.402;0.016;2022-11-11T18:41:13;15.00;99.90
44775;DHT22;31340;51.402;0.016;2022-11-11T18:44:00;15.00;99.90
44775;DHT22;31340;51.402;0.016;2022-11-11T18:46:46;15.00;99.90
44775;DHT22;31340;51.402;0.016;2022-11-11T18:49:32;15.00;99.90
44775;DHT22;31340;51.402;0.016;2022-11-11T18:52:18;15.00;99.90
44775;DHT22;31340;51.402;0.016;2022-11-11T18:55:04;15.00;99.90
44775;DHT22;31340;51.402;0.016;2022-11-11T18:57:50;15.00;99.90
44775;DHT22;31340;51.402;0.016;2022-11-11T19:00:36;15.00;99.90
44775;DHT22;31340;51.402;0.016;2022-11-11T19:03:23;15.00;99.90
44775;DHT22;31340;51.402;0.016;2022-11-11T19:06:10;15.00;99.90
44775;DHT22;31340;51.402;0.016;2022-11-11T19:09:01;14.90;99.90
44775;DHT22;31340;51.402;0.016;2022-11-11T19:11:49;14.90;99.90
44775;DHT22;31340;51.402;0.016;2022-11-11T19:14:35;14.90;99.90
44775;DHT22;31340;51.402;0.016;2022-11-11T19:17:21;14.90;99.90
44775;DHT22;31340;51.402;0.016;2022-11-11T19:20:08;14.90;99.90
44775;DHT22;31340;51.402;0.016;2022-11-11T19:22:54;14.90;99.90
44775;DHT22;31340;51.402;0.016;2022-11-11T19:25:40;14.90;99.90
44775;DHT22;31340;51.402;0.016;2022-11-11T19:28:26;14.90;99.90
44775;DHT22;31340;51.402;0.016;2022-11-11T19:31:16;14.90;99.90
44775;DHT22;31340;51.402;0.016;2022-11-11T19:34:02;14.80;99.90
44775;DHT22;31340;51.402;0.016;2022-11-11T19:36:48;14.90;99.90
44775;DHT22;31340;51.402;0.016;2022-11-11T19:39:34;14.80;99.90
44775;DHT22;31340;51.402;0.016;2022-11-11T19:42:20;14.80;99.90
44775;DHT22;31340;51.402;0.016;2022-11-11T19:45:07;14.70;99.90
44775;DHT22;31340;51.402;0.016;2022-11-11T19:47:53;14.70;99.90
44775;DHT22;31340;51.402;0.016;2022-11-11T19:50:39;14.70;99.90
44775;DHT22;31340;51.402;0.016;2022-11-11T19:53:26;14.70;99.90
44775;DHT22;31340;51.402;0.016;2022-11-11T19:56:15;14.70;99.90
44775;DHT22;31340;51.402;0.016;2022-11-11T19:59:01;14.60;99.90
44775;DHT22;31340;51.402;0.016;2022-11-11T20:01:53;14.60;99.90